createdAt,value
2022-09-02T00:02:07.208Z,1.80
2022-09-02T00:04:33.992Z,2.00
2022-09-02T00:07:00.723Z,1.85
2022-09-02T00:09:27.898Z,1.73
2022-09-02T00:11:56.045Z,2.13
2022-09-02T00:14:35.931Z,2.00
2022-09-02T00:17:04.037Z,2.13
2022-09-02T00:19:31.503Z,2.00
2022-09-02T00:21:59.427Z,2.33
2022-09-02T00:24:26.472Z,1.70
2022-09-02T00:26:56.682Z,1.80
2022-09-02T00:29:24.807Z,2.00
2022-09-02T00:31:51.586Z,1.75
2022-09-02T00:34:19.238Z,2.00
2022-09-02T00:36:46.032Z,2.17
2022-09-02T00:39:12.837Z,2.22
2022-09-02T00:41:41.504Z,1.90
2022-09-02T00:44:11.980Z,2.20
2022-09-02T00:46:39.366Z,2.28
2022-09-02T00:49:09.476Z,1.73
2022-09-02T00:51:57.369Z,1.73
2022-09-02T00:54:27.045Z,1.95
2022-09-02T00:56:55.831Z,1.95
2022-09-02T00:59:51.690Z,2.50
2022-09-02T01:02:18.643Z,2.97
2022-09-02T01:04:46.632Z,2.40
2022-09-02T01:07:13.418Z,2.38
2022-09-02T01:09:41.061Z,2.10
2022-09-02T01:12:08.769Z,2.35
2022-09-02T01:14:35.788Z,2.50
2022-09-02T01:17:03.586Z,2.20
2022-09-02T01:19:34.662Z,2.20
2022-09-02T01:22:01.400Z,2.53
2022-09-02T01:24:33.420Z,2.58
2022-09-02T01:27:00.533Z,2.20
2022-09-02T01:29:28.576Z,2.15
2022-09-02T01:31:55.721Z,2.47
2022-09-02T01:34:22.832Z,2.05
2022-09-02T01:36:49.648Z,2.30
2022-09-02T01:39:16.786Z,1.88
2022-09-02T01:41:44.182Z,2.17
2022-09-02T01:44:10.928Z,2.42
2022-09-02T01:46:37.934Z,2.10
2022-09-02T01:49:05.236Z,2.30
2022-09-02T01:51:32.115Z,2.20
2022-09-02T01:53:58.840Z,2.22
2022-09-02T01:56:25.562Z,1.73
2022-09-02T01:58:52.760Z,2.70
2022-09-02T02:01:19.876Z,2.25
2022-09-02T02:03:47.091Z,2.30
2022-09-02T02:06:16.870Z,1.75
2022-09-02T02:08:44.410Z,2.20
2022-09-02T02:11:11.079Z,2.17
2022-09-02T02:13:38.268Z,1.67
2022-09-02T02:16:05.220Z,1.83
2022-09-02T02:18:31.985Z,1.65
2022-09-02T02:20:58.749Z,2.22
2022-09-02T02:23:25.729Z,1.80
2022-09-02T02:25:52.750Z,1.98
2022-09-02T02:28:20.133Z,2.17
2022-09-02T02:30:46.939Z,1.70
2022-09-02T02:33:13.964Z,1.70
2022-09-02T02:35:41.358Z,2.17
2022-09-02T02:38:08.549Z,2.10
2022-09-02T02:40:35.435Z,2.22
2022-09-02T02:43:02.183Z,1.90
2022-09-02T02:45:29.384Z,2.10
2022-09-02T02:47:56.136Z,1.48
2022-09-02T02:50:23.611Z,1.85
2022-09-02T02:52:54.675Z,2.13
2022-09-02T02:55:23.480Z,1.73
2022-09-02T02:57:51.296Z,1.92
2022-09-02T03:00:25.556Z,1.90
2022-09-02T03:02:56.301Z,1.50
2022-09-02T03:05:23.183Z,1.70
2022-09-02T03:07:49.828Z,1.83
2022-09-02T03:10:17.096Z,1.70
2022-09-02T03:12:47.730Z,1.65
2022-09-02T03:15:17.188Z,2.20
2022-09-02T03:17:45.739Z,1.65
2022-09-02T03:20:12.956Z,1.67
2022-09-02T03:22:40.148Z,1.90
2022-09-02T03:25:10.105Z,1.67
2022-09-02T03:27:41.123Z,1.92
2022-09-02T03:30:11.856Z,1.70
2022-09-02T03:32:39.169Z,1.65
2022-09-02T03:35:08.063Z,1.60
2022-09-02T03:37:35.403Z,2.03
2022-09-02T03:40:09.261Z,1.80
2022-09-02T03:42:36.030Z,1.70
2022-09-02T03:45:03.628Z,1.90
2022-09-02T03:47:30.827Z,1.70
2022-09-02T03:49:57.966Z,1.77
2022-09-02T03:52:25.265Z,1.63
2022-09-02T03:54:52.788Z,1.77
2022-09-02T03:57:20.704Z,2.88
2022-09-02T03:59:47.352Z,2.00
2022-09-02T04:02:14.224Z,1.73
2022-09-02T04:04:41.000Z,2.30
2022-09-02T04:07:07.732Z,1.73
2022-09-02T04:09:34.470Z,1.90
2022-09-02T04:12:01.307Z,1.92
2022-09-02T04:14:28.061Z,1.73
2022-09-02T04:16:54.757Z,1.67
2022-09-02T04:19:21.537Z,1.70
2022-09-02T04:21:48.301Z,1.95
2022-09-02T04:24:15.098Z,1.90
2022-09-02T04:26:45.188Z,1.98
2022-09-02T04:29:12.662Z,2.00
2022-09-02T04:31:39.446Z,3.58
2022-09-02T04:34:07.430Z,2.42
2022-09-02T04:36:34.269Z,1.88
2022-09-02T04:39:01.045Z,2.20
2022-09-02T04:41:30.306Z,1.95
2022-09-02T04:43:58.963Z,1.88
2022-09-02T04:46:34.064Z,1.60
2022-09-02T04:49:02.850Z,1.90
2022-09-02T04:51:30.195Z,1.92
2022-09-02T04:53:57.188Z,1.95
2022-09-02T04:56:27.402Z,1.95
2022-09-02T04:58:55.494Z,1.75
2022-09-02T05:01:27.882Z,2.13
2022-09-02T05:03:55.011Z,1.73
2022-09-02T05:06:26.969Z,2.28
2022-09-02T05:08:54.995Z,1.80
2022-09-02T05:11:28.489Z,1.70
2022-09-02T05:13:58.420Z,2.05
2022-09-02T05:16:28.910Z,2.00
2022-09-02T05:18:56.104Z,2.17
2022-09-02T05:21:24.117Z,2.00
2022-09-02T05:23:51.955Z,2.38
2022-09-02T05:26:21.396Z,2.10
2022-09-02T05:28:48.100Z,2.20
2022-09-02T05:31:17.690Z,2.15
2022-09-02T05:33:45.451Z,1.88
2022-09-02T05:36:18.474Z,2.15
2022-09-02T05:38:46.468Z,2.00
2022-09-02T05:41:19.750Z,2.00
2022-09-02T05:43:48.495Z,2.63
2022-09-02T05:46:18.097Z,2.33
2022-09-02T05:49:04.675Z,2.30
2022-09-02T05:51:33.525Z,2.30
2022-09-02T05:54:00.825Z,2.28
2022-09-02T05:56:28.494Z,1.80
2022-09-02T05:58:57.275Z,2.25
2022-09-02T06:01:24.325Z,2.20
2022-09-02T06:03:52.894Z,2.13
2022-09-02T06:06:22.983Z,2.25
2022-09-02T06:08:50.420Z,1.90
2022-09-02T06:11:18.189Z,1.70
2022-09-02T06:13:45.116Z,2.00
2022-09-02T06:16:21.144Z,2.03
2022-09-02T06:18:49.563Z,2.08
2022-09-02T06:21:16.990Z,1.80
2022-09-02T06:23:44.942Z,1.88
2022-09-02T06:26:13.268Z,2.38
2022-09-02T06:28:40.814Z,1.95
2022-09-02T06:31:16.703Z,2.10
2022-09-02T06:33:45.037Z,2.00
2022-09-02T06:36:15.700Z,1.60
2022-09-02T06:38:46.244Z,2.00
2022-09-02T06:41:16.114Z,1.88
2022-09-02T06:43:43.277Z,1.77
2022-09-02T06:46:19.932Z,1.70
2022-09-02T06:48:48.746Z,1.70
2022-09-02T06:51:20.139Z,2.00
2022-09-02T06:53:46.897Z,2.10
2022-09-02T06:56:13.666Z,2.17
2022-09-02T06:58:40.653Z,2.15
2022-09-02T07:01:07.914Z,1.80
2022-09-02T07:03:54.111Z,1.90
2022-09-02T07:06:21.622Z,2.78
2022-09-02T07:08:48.676Z,1.73
2022-09-02T07:11:21.868Z,2.00
2022-09-02T07:13:48.991Z,1.58
2022-09-02T07:16:20.446Z,2.30
2022-09-02T07:18:54.574Z,1.88
2022-09-02T07:21:21.409Z,2.13
2022-09-02T07:23:48.227Z,1.90
2022-09-02T07:26:16.491Z,1.75
2022-09-02T07:28:43.725Z,2.15
2022-09-02T07:31:11.522Z,2.10
2022-09-02T07:33:38.708Z,1.98
2022-09-02T07:36:10.952Z,2.15
2022-09-02T07:38:40.973Z,2.17
2022-09-02T07:41:09.373Z,2.15
2022-09-02T07:43:37.625Z,1.90
2022-09-02T07:46:05.547Z,1.90
2022-09-02T07:48:33.992Z,2.17
2022-09-02T07:51:01.381Z,2.00
2022-09-02T07:53:28.926Z,1.90
2022-09-02T07:55:55.896Z,1.77
2022-09-02T07:58:22.826Z,2.08
2022-09-02T08:00:50.994Z,1.90
2022-09-02T08:03:18.736Z,2.17
2022-09-02T08:05:47.204Z,2.17
2022-09-02T08:08:22.530Z,1.92
2022-09-02T08:10:51.632Z,2.65
2022-09-02T08:13:19.281Z,1.80
2022-09-02T08:15:50.863Z,2.00
2022-09-02T08:18:21.582Z,2.30
2022-09-02T08:20:49.974Z,1.90
2022-09-02T08:23:36.119Z,1.98
2022-09-02T08:26:05.524Z,1.90
2022-09-02T08:28:32.478Z,2.42
2022-09-02T08:30:59.556Z,2.20
2022-09-02T08:33:26.634Z,2.10
2022-09-02T08:35:53.432Z,2.60
2022-09-02T08:38:22.074Z,2.05
2022-09-02T08:40:51.242Z,1.88
2022-09-02T08:43:39.905Z,2.25
2022-09-02T08:46:09.233Z,2.20
2022-09-02T08:48:45.205Z,2.05
2022-09-02T08:51:19.878Z,1.88
2022-09-02T08:54:05.292Z,2.55
2022-09-02T08:56:32.285Z,2.60
2022-09-02T08:59:03.777Z,2.35
2022-09-02T09:01:54.810Z,2.67
2022-09-02T09:04:36.478Z,2.25
2022-09-02T09:07:15.186Z,2.38
2022-09-02T09:10:00.868Z,3.40
2022-09-02T09:12:57.296Z,2.72
2022-09-02T09:15:41.704Z,2.50
2022-09-02T09:18:13.860Z,2.78
2022-09-02T09:20:43.420Z,2.47
2022-09-02T09:23:21.987Z,2.80
2022-09-02T09:25:52.230Z,2.83
2022-09-02T09:28:19.068Z,2.80
2022-09-02T09:30:45.834Z,2.30
2022-09-02T09:33:17.890Z,2.30
2022-09-02T09:35:50.808Z,2.40
2022-09-02T09:38:30.078Z,2.30
2022-09-02T09:41:14.637Z,2.22
2022-09-02T09:43:41.704Z,2.25
2022-09-02T09:46:40.910Z,2.60
2022-09-02T09:49:08.848Z,2.45
2022-09-02T09:51:49.839Z,1.98
2022-09-02T09:54:17.980Z,1.90
2022-09-02T09:56:44.750Z,2.33
2022-09-02T09:59:41.488Z,1.90
2022-09-02T10:02:22.210Z,1.90
2022-09-02T10:04:49.886Z,2.45
2022-09-02T10:07:35.691Z,2.30
2022-09-02T10:12:44.572Z,1.90
2022-09-02T10:15:12.586Z,2.30
2022-09-02T10:18:13.971Z,2.45
2022-09-02T10:21:16.591Z,2.75
2022-09-02T10:23:52.142Z,2.10
2022-09-02T10:26:37.844Z,2.33
2022-09-02T10:32:09.408Z,2.10
2022-09-02T10:34:49.975Z,1.63
2022-09-02T10:37:23.241Z,2.40
2022-09-02T10:40:04.994Z,2.25
2022-09-02T10:42:58.526Z,2.40
2022-09-02T10:45:35.832Z,2.53
2022-09-02T10:48:17.698Z,2.35
2022-09-02T10:50:53.295Z,1.60
2022-09-02T10:53:23.165Z,2.00
2022-09-02T10:56:04.996Z,2.17
2022-09-02T10:59:09.510Z,1.73
2022-09-02T11:01:46.648Z,1.85
2022-09-02T11:04:25.233Z,2.58
2022-09-02T11:07:03.674Z,2.17
2022-09-02T11:09:37.392Z,2.17
2022-09-02T11:12:22.857Z,4.47
2022-09-02T11:15:00.248Z,1.88
2022-09-02T11:17:47.071Z,1.77
2022-09-02T11:20:32.727Z,2.03
2022-09-02T11:25:42.868Z,2.13
2022-09-02T11:28:22.791Z,1.85
2022-09-02T11:30:59.197Z,2.20
2022-09-02T11:33:43.967Z,1.95
2022-09-02T11:36:11.595Z,2.08
2022-09-02T11:38:49.052Z,1.63
2022-09-02T11:41:40.445Z,1.92
2022-09-02T11:44:17.174Z,2.22
2022-09-02T11:47:19.209Z,1.75
2022-09-02T11:50:15.381Z,2.20
2022-09-02T11:53:01.160Z,1.85
2022-09-02T11:55:43.335Z,1.90
2022-09-02T11:58:11.100Z,2.25
2022-09-02T12:00:56.435Z,1.65
2022-09-02T12:03:46.561Z,1.92
2022-09-02T12:06:19.456Z,2.05
2022-09-02T12:08:47.108Z,2.20
2022-09-02T12:11:39.798Z,1.80
2022-09-02T12:14:13.616Z,1.63
2022-09-02T12:17:02.839Z,3.53
2022-09-02T12:19:42.905Z,2.13
2022-09-02T12:22:33.160Z,1.88
2022-09-02T12:25:04.137Z,1.92
2022-09-02T12:27:38.039Z,2.10
2022-09-02T12:30:09.350Z,1.85
2022-09-02T12:32:51.057Z,1.83
2022-09-02T12:35:41.198Z,1.60
2022-09-02T12:38:10.932Z,1.45
2022-09-02T12:41:06.081Z,1.42
2022-09-02T12:43:50.803Z,1.30
2022-09-02T12:46:32.537Z,1.50
2022-09-02T12:49:17.522Z,2.20
2022-09-02T12:52:02.363Z,2.05
2022-09-02T12:54:49.205Z,1.80
2022-09-02T12:57:17.865Z,2.83
2022-09-02T12:59:47.477Z,2.40
2022-09-02T13:03:08.394Z,1.98
2022-09-02T13:06:13.035Z,3.60
2022-09-02T13:08:39.788Z,2.85
2022-09-02T13:11:28.210Z,1.77
2022-09-02T13:14:15.420Z,2.08
2022-09-02T13:16:42.184Z,2.30
2022-09-02T13:19:47.839Z,1.65
2022-09-02T13:22:31.139Z,1.60
2022-09-02T13:25:17.505Z,2.42
2022-09-02T13:27:56.437Z,2.03
2022-09-02T13:30:49.318Z,1.85
2022-09-02T13:33:16.160Z,2.17
2022-09-02T13:35:43.384Z,1.70
2022-09-02T13:38:12.473Z,1.95
2022-09-02T13:40:40.903Z,1.40
2022-09-02T13:43:13.929Z,2.38
2022-09-02T13:45:41.718Z,1.50
2022-09-02T13:48:29.152Z,1.85
2022-09-02T13:50:59.193Z,1.60
2022-09-02T13:54:11.680Z,2.05
2022-09-02T13:56:32.626Z,1.60
2022-09-02T13:58:59.539Z,2.20
2022-09-02T14:01:33.150Z,2.33
2022-09-02T14:06:40.201Z,2.75
2022-09-02T14:09:17.948Z,1.60
2022-09-02T14:11:46.500Z,1.75
2022-09-02T14:14:19.618Z,1.80
2022-09-02T14:16:46.373Z,1.60
2022-09-02T14:19:22.237Z,2.03
2022-09-02T14:21:57.631Z,2.42
2022-09-02T14:24:37.935Z,2.38
2022-09-02T14:27:20.130Z,2.10
2022-09-02T14:29:51.058Z,1.90
2022-09-02T14:32:28.283Z,2.67
2022-09-02T14:35:16.700Z,2.75
2022-09-02T14:37:59.194Z,1.88
2022-09-02T14:40:36.590Z,2.17
2022-09-02T14:43:04.089Z,2.17
2022-09-02T14:45:35.168Z,2.97
2022-09-02T14:48:19.053Z,1.90
2022-09-02T14:50:45.892Z,2.20
2022-09-02T14:53:21.448Z,1.88
2022-09-02T14:55:58.117Z,2.20
2022-09-02T14:58:27.595Z,1.80
2022-09-02T15:01:01.814Z,2.10
2022-09-02T15:03:31.285Z,2.03
2022-09-02T15:05:58.109Z,1.95
2022-09-02T15:08:25.773Z,1.90
2022-09-02T15:10:54.711Z,1.95
2022-09-02T15:13:26.994Z,1.70
2022-09-02T15:15:55.589Z,2.30
2022-09-02T15:18:23.707Z,2.28
2022-09-02T15:20:50.803Z,1.80
2022-09-02T15:23:18.196Z,2.00
2022-09-02T15:25:45.249Z,1.77
2022-09-02T15:28:12.824Z,1.52
2022-09-02T15:30:40.208Z,1.77
2022-09-02T15:33:08.456Z,1.40
2022-09-02T15:35:43.367Z,1.58
2022-09-02T15:38:10.138Z,1.90
2022-09-02T15:40:36.866Z,1.65
2022-09-02T15:43:03.633Z,1.70
2022-09-02T15:45:30.784Z,1.60
2022-09-02T15:47:58.958Z,1.77
2022-09-02T15:50:28.207Z,2.25
2022-09-02T15:52:55.887Z,2.25
2022-09-02T15:55:29.079Z,1.77
2022-09-02T15:57:56.629Z,1.90
2022-09-02T16:00:28.561Z,2.20
2022-09-02T16:02:57.179Z,1.80
2022-09-02T16:05:24.335Z,1.92
2022-09-02T16:07:54.886Z,1.90
2022-09-02T16:10:21.592Z,2.65
2022-09-02T16:12:48.727Z,2.03
2022-09-02T16:15:15.837Z,2.13
2022-09-02T16:17:42.536Z,2.58
2022-09-02T16:20:09.503Z,2.30
2022-09-02T16:22:36.333Z,2.20
2022-09-02T16:25:03.163Z,2.58
2022-09-02T16:27:48.527Z,2.80
2022-09-02T16:30:16.207Z,3.30
2022-09-02T16:32:44.207Z,3.08
2022-09-02T16:35:10.906Z,3.60
2022-09-02T16:37:37.623Z,2.90
2022-09-02T16:40:05.423Z,2.65
2022-09-02T16:42:37.448Z,2.88
2022-09-02T16:45:05.533Z,3.45
2022-09-02T16:47:32.362Z,3.30
2022-09-02T16:49:59.095Z,4.10
2022-09-02T16:52:25.906Z,5.15
2022-09-02T16:54:52.690Z,3.72
2022-09-02T16:57:19.401Z,3.88
2022-09-02T16:59:46.104Z,4.20
2022-09-02T17:02:12.850Z,3.53
2022-09-02T17:04:39.587Z,4.95
2022-09-02T17:07:06.692Z,4.57
2022-09-02T17:09:33.470Z,4.32
2022-09-02T17:12:00.308Z,3.90
2022-09-02T17:14:27.206Z,4.50
2022-09-02T17:16:53.998Z,3.75
2022-09-02T17:19:22.064Z,3.80
2022-09-02T17:21:52.071Z,4.22
2022-09-02T17:24:24.141Z,4.35
2022-09-02T17:26:55.506Z,3.70
2022-09-02T17:32:11.595Z,3.92
2022-09-02T17:34:38.489Z,3.83
2022-09-02T17:37:05.501Z,3.53
2022-09-02T17:39:33.940Z,3.50
2022-09-02T17:42:01.831Z,3.28
2022-09-02T17:44:38.661Z,3.30
2022-09-02T17:47:10.706Z,3.28
2022-09-02T17:49:38.933Z,3.00
2022-09-02T17:52:07.517Z,2.88
2022-09-02T17:54:38.877Z,3.85
2022-09-02T17:57:25.538Z,3.38
2022-09-02T18:00:07.117Z,3.50
2022-09-02T18:02:39.598Z,3.65
2022-09-02T18:05:28.941Z,3.03
2022-09-02T18:08:18.078Z,3.20
2022-09-02T18:10:57.186Z,3.60
2022-09-02T18:13:40.698Z,3.17
2022-09-02T18:16:23.514Z,3.45
2022-09-02T18:19:13.658Z,3.72
2022-09-02T18:21:52.589Z,3.33
2022-09-02T18:24:31.360Z,3.22
2022-09-02T18:27:20.140Z,3.80
2022-09-02T18:30:11.991Z,3.53
2022-09-02T18:33:04.353Z,3.13
2022-09-02T18:35:47.736Z,3.63
2022-09-02T18:38:44.708Z,3.47
2022-09-02T18:41:11.765Z,3.30
2022-09-02T18:43:59.404Z,3.10
2022-09-02T18:46:34.237Z,3.05
2022-09-02T18:49:03.771Z,3.42
2022-09-02T18:51:41.457Z,3.50
2022-09-02T18:54:26.643Z,3.00
2022-09-02T18:57:00.652Z,2.88
2022-09-02T18:59:47.183Z,3.20
2022-09-02T19:02:31.556Z,2.80
2022-09-02T19:05:01.507Z,3.03
2022-09-02T19:07:47.119Z,3.40
2022-09-02T19:10:14.144Z,4.10
2022-09-02T19:12:43.644Z,3.55
2022-09-02T19:15:13.201Z,3.65
2022-09-02T19:17:40.839Z,3.50
2022-09-02T19:20:09.689Z,3.53
2022-09-02T19:22:43.338Z,3.40
2022-09-02T19:25:15.350Z,3.15
2022-09-02T19:27:44.019Z,3.40
2022-09-02T19:30:24.795Z,3.38
2022-09-02T19:32:54.217Z,3.67
2022-09-02T19:35:24.722Z,3.88
2022-09-02T19:37:53.711Z,3.50
2022-09-02T19:40:28.053Z,3.45
2022-09-02T19:42:55.196Z,3.20
2022-09-02T19:45:22.525Z,3.45
2022-09-02T19:48:08.808Z,3.50
2022-09-02T19:50:40.767Z,3.33
2022-09-02T19:53:15.980Z,3.33
2022-09-02T19:55:42.777Z,3.67
2022-09-02T19:58:09.532Z,3.60
2022-09-02T20:00:36.523Z,3.22
2022-09-02T20:03:03.546Z,3.55
2022-09-02T20:05:31.295Z,3.55
2022-09-02T20:07:58.084Z,3.63
2022-09-02T20:10:27.702Z,3.70
2022-09-02T20:12:55.283Z,3.85
2022-09-02T20:15:21.999Z,3.30
2022-09-02T20:17:49.505Z,3.30
2022-09-02T20:20:21.588Z,3.33
2022-09-02T20:22:54.665Z,3.53
2022-09-02T20:25:31.130Z,3.20
2022-09-02T20:28:26.218Z,3.28
2022-09-02T20:31:01.323Z,3.80
2022-09-02T20:33:36.089Z,3.15
2022-09-02T20:36:26.475Z,3.47
2022-09-02T20:39:06.640Z,3.65
2022-09-02T20:41:44.299Z,3.58
2022-09-02T20:44:34.676Z,3.63
2022-09-02T20:47:28.994Z,3.55
2022-09-02T20:50:21.651Z,3.90
2022-09-02T20:53:16.620Z,3.55
2022-09-02T20:55:59.184Z,3.58
2022-09-02T20:58:55.348Z,4.10
2022-09-02T21:04:19.114Z,4.60
2022-09-02T21:07:11.983Z,4.05
2022-09-02T21:10:00.155Z,3.90
2022-09-02T21:12:37.164Z,4.15
2022-09-02T21:15:30.455Z,3.78
2022-09-02T21:18:10.188Z,3.78
2022-09-02T21:21:04.127Z,4.43
2022-09-02T21:23:35.875Z,4.40
2022-09-02T21:26:19.273Z,3.97
2022-09-02T21:28:58.577Z,4.72
2022-09-02T21:33:58.964Z,6.25
2022-09-02T21:36:30.317Z,4.88
2022-09-02T21:39:03.263Z,4.78
2022-09-02T21:42:01.382Z,4.63
2022-09-02T21:44:56.256Z,4.13
2022-09-02T21:47:32.394Z,4.88
2022-09-02T21:50:09.371Z,5.18
2022-09-02T21:52:48.934Z,5.50
2022-09-02T21:55:21.883Z,5.25
2022-09-02T21:58:39.673Z,5.28
2022-09-02T22:01:28.644Z,5.30
2022-09-02T22:04:18.487Z,5.53
2022-09-02T22:06:51.584Z,6.60
2022-09-02T22:09:30.206Z,5.93
2022-09-02T22:12:11.551Z,6.30
2022-09-02T22:14:44.117Z,5.90
2022-09-02T22:17:33.925Z,5.95
2022-09-02T22:20:05.296Z,5.25
2022-09-02T22:22:45.088Z,5.57
2022-09-02T22:25:15.715Z,5.53
2022-09-02T22:28:14.488Z,5.22
2022-09-02T22:30:51.908Z,4.78
2022-09-02T22:33:25.073Z,5.45
2022-09-02T22:36:00.663Z,5.72
2022-09-02T22:38:35.464Z,5.13
2022-09-02T22:41:12.314Z,5.70
2022-09-02T22:43:48.580Z,5.72
2022-09-02T22:46:48.175Z,5.57
2022-09-02T22:49:38.021Z,5.88
2022-09-02T22:52:34.155Z,6.15
2022-09-02T22:55:01.376Z,6.15
2022-09-02T22:57:49.627Z,6.75
2022-09-02T23:00:18.480Z,6.35
2022-09-02T23:03:14.159Z,5.97
2022-09-02T23:05:55.677Z,7.15
2022-09-02T23:08:22.962Z,7.50
2022-09-02T23:11:06.729Z,6.70
2022-09-02T23:14:09.129Z,6.70
2022-09-02T23:16:59.972Z,8.00
2022-09-02T23:19:56.302Z,8.35
2022-09-02T23:22:50.716Z,8.05
2022-09-02T23:25:24.342Z,7.65
2022-09-02T23:28:16.559Z,7.38
2022-09-02T23:31:09.363Z,7.40
2022-09-02T23:33:53.985Z,7.80
2022-09-02T23:36:35.244Z,8.18
2022-09-02T23:39:28.080Z,8.32
2022-09-02T23:42:00.696Z,7.15
2022-09-02T23:44:29.568Z,7.15
2022-09-02T23:47:19.333Z,6.93
2022-09-02T23:50:05.488Z,6.13
2022-09-02T23:52:58.861Z,7.90
2022-09-02T23:55:44.915Z,6.40
2022-09-02T23:58:30.216Z,6.18
